首页
METAR-TAF:

METAR-TAF

机场 :

Army Air Corps Middle Wallop

Middle Wallop, 英格兰

纬度: 51-09N, 经度: 001-34W, 海拔: 91米

当前天气观测

该预报发布于1小时和29分钟前的19:50 UTC
风速10节,风向西北
温度 11°C
湿度 66%
气压 1014 hPa
能见度10公里或以上

METAR: EGVP 261950Z AUTO 32010KT 9999 SCT037/// 11/05 Q1014

时间: 22:19 (21:19 UTC)


TAF: 丢失

超过4000个机场的气象观测和天气预报(METAR&TAF报告)。

可查询的气象台以黄色和红色小点在地图上表示。

将鼠标移到小点上方,可查看气象台名称。

然后点击查看天气观测和预报。

如需切换地图:点击带黑十字的绿色按钮放大地图;点击带横线的绿色按钮缩小地图;或者点击绿色箭头查看邻近地区的地图。


METAR-TAF: